Time;durP1;ratioP1;P1;durP2;ratioP2;P2;SDS_P1;SDS_P2;PMS_P1;PMS_P2;Temp;Humidity;BMP_temperature;BMP_pressure;BME280_temperature;BME280_humidity;BME280_pressure;Samples;Min_cycle;Max_cycle;Signal;HPM_P1;HPM_P2
2022/10/01 00:00:25;;;;;;;5.20;1.60;;;;;;;;;;4858949;29;20148;-66
2022/10/01 00:02:53;;;;;;;4.90;1.65;;;;;;;;;;4858560;29;20112;-67
2022/10/01 00:05:19;;;;;;;7.88;1.98;;;;;;;;;;4858967;29;20077;-67
2022/10/01 00:07:45;;;;;;;8.18;1.77;;;;;;;;;;4858749;29;20056;-66
2022/10/01 00:10:12;;;;;;;6.95;1.80;;;;;;;;;;4858874;29;20030;-67
2022/10/01 00:12:43;;;;;;;7.00;1.65;;;;;;;;;;4858733;29;20025;-66
2022/10/01 00:15:10;;;;;;;2.93;1.47;;;;;;;;;;4858688;29;20021;-67
2022/10/01 00:17:36;;;;;;;7.57;1.98;;;;;;;;;;4858593;29;20033;-67
2022/10/01 00:20:03;;;;;;;4.88;1.90;;;;;;;;;;4858603;29;20543;-70
2022/10/01 00:22:33;;;;;;;6.75;1.70;;;;;;;;;;4858689;29;20568;-68
2022/10/01 00:24:59;;;;;;;5.93;1.60;;;;;;;;;;4858786;29;20049;-69
2022/10/01 00:27:26;;;;;;;4.70;1.88;;;;;;;;;;4858889;29;20041;-67
2022/10/01 00:29:52;;;;;;;3.80;1.73;;;;;;;;;;4858652;29;20117;-68
2022/10/01 00:32:19;;;;;;;7.25;1.77;;;;;;;;;;4858377;29;20381;-67
2022/10/01 00:34:45;;;;;;;4.45;1.85;;;;;;;;;;4858685;29;20045;-68
2022/10/01 00:37:11;;;;;;;8.98;1.70;;;;;;;;;;4858224;29;20041;-71
2022/10/01 00:39:37;;;;;;;3.97;1.67;;;;;;;;;;4858691;29;20105;-68
2022/10/01 00:42:23;;;;;;;6.80;1.75;;;;;;;;;;4858454;29;20081;-67
2022/10/01 00:44:50;;;;;;;7.60;1.58;;;;;;;;;;4858488;29;20042;-67
2022/10/01 00:47:22;;;;;;;3.63;1.55;;;;;;;;;;4857476;29;20501;-71
2022/10/01 00:49:50;;;;;;;3.58;1.55;;;;;;;;;;4858759;29;20101;-69
2022/10/01 00:52:18;;;;;;;4.20;1.50;;;;;;;;;;4858356;29;20205;-67
2022/10/01 00:54:48;;;;;;;5.43;1.95;;;;;;;;;;4858507;29;20058;-71
2022/10/01 00:57:15;;;;;;;8.85;2.10;;;;;;;;;;4858346;29;20037;-67
2022/10/01 00:59:42;;;;;;;4.53;1.70;;;;;;;;;;4858646;29;20021;-72
2022/10/01 01:02:09;;;;;;;5.82;1.92;;;;;;;;;;4858499;29;20104;-68
2022/10/01 01:04:36;;;;;;;4.22;1.55;;;;;;;;;;4858317;29;20107;-67
2022/10/01 01:07:03;;;;;;;5.75;1.63;;;;;;;;;;4858409;29;20367;-67
2022/10/01 01:09:30;;;;;;;5.00;1.98;;;;;;;;;;4858157;29;20034;-66
2022/10/01 01:12:01;;;;;;;8.07;1.65;;;;;;;;;;4858467;29;20064;-66
2022/10/01 01:14:32;;;;;;;4.88;1.67;;;;;;;;;;4858023;29;20056;-72
2022/10/01 01:17:01;;;;;;;3.70;1.75;;;;;;;;;;4857775;29;20505;-67
2022/10/01 01:19:36;;;;;;;3.13;1.55;;;;;;;;;;4858404;29;20078;-71
2022/10/01 01:22:05;;;;;;;7.28;1.45;;;;;;;;;;4858208;29;20033;-72
2022/10/01 01:24:31;;;;;;;6.45;1.40;;;;;;;;;;4840668;29;20443;-68
2022/10/01 01:27:09;;;;;;;5.18;1.63;;;;;;;;;;4857954;29;20089;-68
2022/10/01 01:29:42;;;;;;;3.97;1.48;;;;;;;;;;4858034;29;20474;-68
2022/10/01 01:32:11;;;;;;;4.28;1.77;;;;;;;;;;4857734;29;20030;-67
2022/10/01 01:34:38;;;;;;;4.25;1.50;;;;;;;;;;4858264;29;20034;-67
2022/10/01 01:37:11;;;;;;;5.25;1.60;;;;;;;;;;4857829;29;20038;-68
2022/10/01 01:39:36;;;;;;;;;;;;;;;;;;4858490;29;20028;-68
2022/10/01 01:42:05;;;;;;;4.05;1.50;;;;;;;;;;4857882;29;20011;-67
2022/10/01 01:44:33;;;;;;;6.25;1.50;;;;;;;;;;4857673;29;20028;-71
2022/10/01 01:47:01;;;;;;;3.40;1.33;;;;;;;;;;4858025;29;20113;-67
2022/10/01 01:49:27;;;;;;;4.80;1.30;;;;;;;;;;4858119;29;20037;-67
2022/10/01 01:51:53;;;;;;;5.90;1.52;;;;;;;;;;4840668;29;20408;-67
2022/10/01 01:54:19;;;;;;;4.28;1.50;;;;;;;;;;4857804;29;20025;-70
2022/10/01 01:56:48;;;;;;;6.57;1.90;;;;;;;;;;4858076;29;20044;-66
2022/10/01 01:59:15;;;;;;;5.38;1.70;;;;;;;;;;4860929;29;20050;-69
2022/10/01 02:01:42;;;;;;;4.75;1.65;;;;;;;;;;4862362;29;20029;-67
2022/10/01 02:04:14;;;;;;;4.72;1.52;;;;;;;;;;4861897;29;20049;-67
2022/10/01 02:07:03;;;;;;;4.80;1.70;;;;;;;;;;4861140;29;20099;-66
2022/10/01 02:09:33;;;;;;;5.22;1.75;;;;;;;;;;4861108;29;20386;-67
2022/10/01 02:12:25;;;;;;;4.85;1.50;;;;;;;;;;4861262;29;20025;-67
2022/10/01 02:14:57;;;;;;;4.75;1.33;;;;;;;;;;4857913;29;20056;-70
2022/10/01 02:17:39;;;;;;;4.32;1.65;;;;;;;;;;4860833;29;20072;-66
2022/10/01 02:20:17;;;;;;;8.15;1.45;;;;;;;;;;4860964;29;20041;-67
2022/10/01 02:22:51;;;;;;;3.63;1.38;;;;;;;;;;4860818;29;20036;-66
2022/10/01 02:25:18;;;;;;;6.07;1.63;;;;;;;;;;4860742;29;20124;-66
2022/10/01 02:28:01;;;;;;;4.45;1.52;;;;;;;;;;4860953;29;20034;-67
2022/10/01 02:30:28;;;;;;;5.03;1.30;;;;;;;;;;4860692;29;20041;-68
2022/10/01 02:32:57;;;;;;;5.32;1.52;;;;;;;;;;4860508;29;20109;-67
2022/10/01 02:35:24;;;;;;;5.40;1.48;;;;;;;;;;4860868;29;20033;-72
2022/10/01 02:37:51;;;;;;;3.72;1.42;;;;;;;;;;4860699;29;20045;-68
2022/10/01 02:40:19;;;;;;;4.68;1.50;;;;;;;;;;4860426;29;20082;-68
2022/10/01 02:42:46;;;;;;;3.42;1.50;;;;;;;;;;4860297;29;20040;-68
2022/10/01 02:45:13;;;;;;;5.43;1.40;;;;;;;;;;4860388;29;20025;-68
2022/10/01 02:47:42;;;;;;;5.28;1.35;;;;;;;;;;4860659;29;20025;-68
2022/10/01 02:50:09;;;;;;;3.65;1.45;;;;;;;;;;4860290;29;20061;-68
2022/10/01 02:52:58;;;;;;;3.38;1.20;;;;;;;;;;4860622;29;20101;-67
2022/10/01 02:55:27;;;;;;;6.80;1.30;;;;;;;;;;4860144;29;20399;-71
2022/10/01 02:57:54;;;;;;;5.75;1.20;;;;;;;;;;4859957;29;20037;-71
2022/10/01 03:00:20;;;;;;;3.90;1.63;;;;;;;;;;4860187;29;20030;-67
2022/10/01 03:02:46;;;;;;;4.90;1.30;;;;;;;;;;4859828;29;20524;-67
2022/10/01 03:05:14;;;;;;;5.68;1.88;;;;;;;;;;4860017;29;20120;-67
2022/10/01 03:07:40;;;;;;;3.33;1.25;;;;;;;;;;4860214;29;20136;-72
2022/10/01 03:10:07;;;;;;;3.80;1.10;;;;;;;;;;4859257;29;20164;-68
2022/10/01 03:12:34;;;;;;;3.72;1.60;;;;;;;;;;4859888;29;20064;-67
2022/10/01 03:15:01;;;;;;;8.77;1.30;;;;;;;;;;4859941;29;20034;-73
2022/10/01 03:17:27;;;;;;;6.25;1.50;;;;;;;;;;4859804;29;20037;-68
2022/10/01 03:19:54;;;;;;;6.50;1.45;;;;;;;;;;4859839;29;20021;-68
2022/10/01 03:22:23;;;;;;;4.75;1.45;;;;;;;;;;4859958;29;20038;-72
2022/10/01 03:24:52;;;;;;;2.78;1.23;;;;;;;;;;4859622;29;20394;-71
2022/10/01 03:27:19;;;;;;;3.38;1.25;;;;;;;;;;4860040;29;20030;-68
2022/10/01 03:29:46;;;;;;;4.18;1.42;;;;;;;;;;4859596;29;20112;-70
2022/10/01 03:32:12;;;;;;;3.53;1.23;;;;;;;;;;4859729;29;20086;-69
2022/10/01 03:34:39;;;;;;;4.07;1.33;;;;;;;;;;4859612;29;20502;-68
2022/10/01 03:37:05;;;;;;;6.75;1.67;;;;;;;;;;4842636;29;20081;-71
2022/10/01 03:39:31;;;;;;;4.57;1.65;;;;;;;;;;4859382;29;20022;-68
2022/10/01 03:41:57;;;;;;;3.85;1.48;;;;;;;;;;4859658;29;20033;-69
2022/10/01 03:44:23;;;;;;;6.28;1.70;;;;;;;;;;4859542;29;20070;-68
2022/10/01 03:46:49;;;;;;;3.33;1.20;;;;;;;;;;4859472;29;20064;-67
2022/10/01 03:49:15;;;;;;;3.13;1.33;;;;;;;;;;4859676;29;20459;-70
2022/10/01 03:51:41;;;;;;;5.75;1.95;;;;;;;;;;4859187;29;20120;-70
2022/10/01 03:54:08;;;;;;;4.60;1.40;;;;;;;;;;4859410;29;20096;-72
2022/10/01 03:56:34;;;;;;;4.78;1.35;;;;;;;;;;4858980;29;20052;-67
2022/10/01 03:59:00;;;;;;;8.45;1.50;;;;;;;;;;4859099;29;20047;-67
2022/10/01 04:01:26;;;;;;;5.63;1.30;;;;;;;;;;4859127;29;20074;-71
2022/10/01 04:03:52;;;;;;;6.15;1.70;;;;;;;;;;4859007;29;20486;-68
2022/10/01 04:06:19;;;;;;;6.93;2.15;;;;;;;;;;4858876;29;20455;-67
2022/10/01 04:08:45;;;;;;;7.35;1.58;;;;;;;;;;4858982;29;20029;-68
2022/10/01 04:11:12;;;;;;;4.82;1.63;;;;;;;;;;4859102;29;20026;-68
2022/10/01 04:13:38;;;;;;;7.28;1.90;;;;;;;;;;4858803;29;20041;-69
2022/10/01 04:16:04;;;;;;;6.90;1.63;;;;;;;;;;4858946;29;20132;-68
2022/10/01 04:18:31;;;;;;;5.75;1.80;;;;;;;;;;4858475;29;20030;-68
2022/10/01 04:20:57;;;;;;;9.00;1.92;;;;;;;;;;4858600;29;20021;-68
2022/10/01 04:23:23;;;;;;;4.60;1.88;;;;;;;;;;4858710;29;20626;-68
2022/10/01 04:25:49;;;;;;;6.80;1.80;;;;;;;;;;4858811;29;20034;-72
2022/10/01 04:28:16;;;;;;;6.07;1.88;;;;;;;;;;4858584;29;20045;-68
2022/10/01 04:30:43;;;;;;;7.25;1.80;;;;;;;;;;4858919;29;20032;-72
2022/10/01 04:33:12;;;;;;;5.07;1.92;;;;;;;;;;4858666;29;20025;-67
2022/10/01 04:35:38;;;;;;;4.60;1.70;;;;;;;;;;4858867;29;20098;-68
2022/10/01 04:38:11;;;;;;;8.48;1.95;;;;;;;;;;4858799;29;20033;-67
2022/10/01 04:40:37;;;;;;;5.72;1.77;;;;;;;;;;4858586;29;20030;-68
2022/10/01 04:43:04;;;;;;;6.57;2.38;;;;;;;;;;4841360;29;20042;-71
2022/10/01 04:45:31;;;;;;;5.75;2.10;;;;;;;;;;4858386;29;20033;-68
2022/10/01 04:47:58;;;;;;;5.75;2.30;;;;;;;;;;4858263;29;20104;-68
2022/10/01 04:50:25;;;;;;;10.70;2.55;;;;;;;;;;4858542;29;20112;-68
2022/10/01 04:52:51;;;;;;;4.80;2.10;;;;;;;;;;4858171;29;20034;-68
2022/10/01 04:55:18;;;;;;;5.95;2.30;;;;;;;;;;4858515;29;20037;-67
2022/10/01 04:57:44;;;;;;;5.13;1.95;;;;;;;;;;4858102;29;20489;-68
2022/10/01 05:00:11;;;;;;;5.43;2.47;;;;;;;;;;4858458;29;20029;-67
2022/10/01 05:02:38;;;;;;;7.65;2.20;;;;;;;;;;4858101;29;20423;-71
2022/10/01 05:05:04;;;;;;;5.47;1.92;;;;;;;;;;4858216;29;20050;-67
2022/10/01 05:07:31;;;;;;;8.45;2.15;;;;;;;;;;4858176;29;20074;-68
2022/10/01 05:09:57;;;;;;;5.03;2.20;;;;;;;;;;4858468;29;20100;-71
2022/10/01 05:12:24;;;;;;;6.68;2.55;;;;;;;;;;4858319;29;20106;-67
2022/10/01 05:14:56;;;;;;;11.02;2.53;;;;;;;;;;4858267;29;20094;-69
2022/10/01 05:17:23;;;;;;;9.73;2.50;;;;;;;;;;4858072;29;20117;-67
2022/10/01 05:19:49;;;;;;;9.77;2.58;;;;;;;;;;4858301;29;20125;-67
2022/10/01 05:22:16;;;;;;;7.07;1.85;;;;;;;;;;4858393;29;20030;-71
2022/10/01 05:24:42;;;;;;;4.57;2.03;;;;;;;;;;4858011;29;20057;-67
2022/10/01 05:27:12;;;;;;;8.77;2.45;;;;;;;;;;4858131;29;20029;-67
2022/10/01 05:29:38;;;;;;;8.05;2.10;;;;;;;;;;4858262;29;20028;-72
2022/10/01 05:32:04;;;;;;;6.00;2.10;;;;;;;;;;4858312;29;20041;-67
2022/10/01 05:34:30;;;;;;;6.93;2.40;;;;;;;;;;4861537;29;20093;-67
2022/10/01 05:36:56;;;;;;;7.43;2.58;;;;;;;;;;4861798;29;20125;-68
2022/10/01 05:39:22;;;;;;;9.10;2.50;;;;;;;;;;4861560;29;20030;-71
2022/10/01 05:41:49;;;;;;;9.60;3.17;;;;;;;;;;4861641;29;20102;-72
2022/10/01 05:44:15;;;;;;;6.20;2.45;;;;;;;;;;4861581;29;20025;-67
2022/10/01 05:46:42;;;;;;;9.93;4.97;;;;;;;;;;4861708;29;20040;-68
2022/10/01 05:49:09;;;;;;;12.43;5.63;;;;;;;;;;4861677;29;20026;-68
2022/10/01 05:51:35;;;;;;;20.45;8.10;;;;;;;;;;4861472;29;20104;-71
2022/10/01 05:54:03;;;;;;;15.30;6.15;;;;;;;;;;4844632;29;20363;-67
2022/10/01 05:56:29;;;;;;;10.15;4.45;;;;;;;;;;4861546;29;20071;-67
2022/10/01 05:58:55;;;;;;;13.32;4.60;;;;;;;;;;4861318;29;20056;-67
2022/10/01 06:01:21;;;;;;;7.82;3.45;;;;;;;;;;4861470;29;20475;-67
2022/10/01 06:03:51;;;;;;;7.90;3.15;;;;;;;;;;4860931;29;20409;-67
2022/10/01 06:06:35;;;;;;;10.07;2.75;;;;;;;;;;4860858;29;20385;-67
2022/10/01 06:09:01;;;;;;;5.55;2.40;;;;;;;;;;4861370;29;20394;-67
2022/10/01 06:11:27;;;;;;;11.52;3.28;;;;;;;;;;4860986;29;20040;-69
2022/10/01 06:13:53;;;;;;;7.85;2.90;;;;;;;;;;4861303;29;20064;-68
2022/10/01 06:16:20;;;;;;;5.55;2.97;;;;;;;;;;4860821;29;20072;-69
2022/10/01 06:18:46;;;;;;;8.63;2.90;;;;;;;;;;4861204;29;20037;-67
2022/10/01 06:21:12;;;;;;;7.72;2.97;;;;;;;;;;4860972;29;20032;-67
2022/10/01 06:23:38;;;;;;;6.65;2.75;;;;;;;;;;4860760;29;20033;-67
2022/10/01 06:26:05;;;;;;;9.52;3.20;;;;;;;;;;4860752;29;20026;-67
2022/10/01 06:28:31;;;;;;;5.45;3.08;;;;;;;;;;4860863;29;20026;-70
2022/10/01 06:31:00;;;;;;;7.70;2.75;;;;;;;;;;4860427;29;20057;-67
2022/10/01 06:33:26;;;;;;;6.85;2.60;;;;;;;;;;4860325;29;20037;-67
2022/10/01 06:35:52;;;;;;;10.85;3.10;;;;;;;;;;4860642;29;20042;-67
2022/10/01 06:38:20;;;;;;;7.72;2.90;;;;;;;;;;4860275;29;20383;-69
2022/10/01 06:40:52;;;;;;;8.48;3.65;;;;;;;;;;4860468;29;20042;-70
2022/10/01 06:43:18;;;;;;;;;;;;;;;;;;4860888;29;20057;-72
2022/10/01 06:45:44;;;;;;;8.20;3.15;;;;;;;;;;4860605;29;19999;-65
2022/10/01 06:48:13;;;;;;;12.45;4.40;;;;;;;;;;4860324;29;20044;-68
2022/10/01 06:50:39;;;;;;;10.20;3.97;;;;;;;;;;4860190;29;20029;-73
2022/10/01 06:53:05;;;;;;;10.70;4.82;;;;;;;;;;4860347;29;20124;-64
2022/10/01 06:55:33;;;;;;;10.60;4.40;;;;;;;;;;4860135;29;20041;-70
2022/10/01 06:58:00;;;;;;;11.95;4.70;;;;;;;;;;4859994;29;20044;-65
2022/10/01 07:00:27;;;;;;;12.85;5.30;;;;;;;;;;4859860;29;20398;-66
2022/10/01 07:02:54;;;;;;;8.30;3.83;;;;;;;;;;4859922;29;20048;-65
2022/10/01 07:05:20;;;;;;;7.35;3.50;;;;;;;;;;4859725;29;20381;-65
2022/10/01 07:07:47;;;;;;;7.80;3.20;;;;;;;;;;4860019;29;20029;-69
2022/10/01 07:10:13;;;;;;;8.23;2.95;;;;;;;;;;4859864;29;20026;-66
2022/10/01 07:12:39;;;;;;;10.85;3.15;;;;;;;;;;4859744;29;20048;-66
2022/10/01 07:15:06;;;;;;;9.48;2.90;;;;;;;;;;4843310;29;20445;-66
2022/10/01 07:17:33;;;;;;;11.63;3.33;;;;;;;;;;4858944;29;20472;-71
2022/10/01 07:20:00;;;;;;;7.65;3.00;;;;;;;;;;4860070;29;20034;-68
2022/10/01 07:22:26;;;;;;;8.32;3.30;;;;;;;;;;4859502;29;20049;-67
2022/10/01 07:24:52;;;;;;;8.13;3.30;;;;;;;;;;4859778;29;20033;-65
2022/10/01 07:27:19;;;;;;;8.48;3.50;;;;;;;;;;4859438;29;20026;-65
2022/10/01 07:29:45;;;;;;;9.23;3.83;;;;;;;;;;4859732;29;20534;-71
2022/10/01 07:32:11;;;;;;;8.82;3.38;;;;;;;;;;4858904;29;20811;-64
2022/10/01 07:34:41;;;;;;;9.10;3.50;;;;;;;;;;4861269;29;20358;-66
2022/10/01 07:37:08;;;;;;;9.23;3.45;;;;;;;;;;4859469;29;20033;-64
2022/10/01 07:39:34;;;;;;;7.43;3.38;;;;;;;;;;4859373;29;20481;-64
2022/10/01 07:42:00;;;;;;;12.68;3.40;;;;;;;;;;4859306;29;20779;-66
2022/10/01 07:44:28;;;;;;;9.38;3.55;;;;;;;;;;4862628;29;20034;-68
2022/10/01 07:46:54;;;;;;;7.22;3.25;;;;;;;;;;4861509;29;20029;-64
2022/10/01 07:49:20;;;;;;;6.57;3.00;;;;;;;;;;4861325;29;20501;-66
2022/10/01 07:51:47;;;;;;;8.05;2.95;;;;;;;;;;4864734;29;20038;-72
2022/10/01 07:54:15;;;;;;;7.88;3.28;;;;;;;;;;4859971;29;20061;-67
2022/10/01 07:56:41;;;;;;;6.78;3.30;;;;;;;;;;4858841;29;20037;-69
2022/10/01 07:59:09;;;;;;;7.10;3.55;;;;;;;;;;4858773;29;20198;-66
2022/10/01 08:01:35;;;;;;;6.93;3.30;;;;;;;;;;4858739;29;20101;-65
2022/10/01 08:05:16;;;;;;;6.57;3.20;;;;;;;;;;4858875;29;20057;-64
2022/10/01 08:06:47;;;;;;;8.68;3.50;;;;;;;;;;4858977;29;20062;-70
2022/10/01 08:09:14;;;;;;;9.70;3.33;;;;;;;;;;4858808;29;20390;-72
2022/10/01 08:11:40;;;;;;;7.72;2.97;;;;;;;;;;4858986;29;20041;-65
2022/10/01 08:14:06;;;;;;;8.93;3.20;;;;;;;;;;4858425;29;20061;-65
2022/10/01 08:16:33;;;;;;;6.85;3.10;;;;;;;;;;4858333;29;20041;-70
2022/10/01 08:18:59;;;;;;;9.50;3.28;;;;;;;;;;4858594;29;20093;-69
2022/10/01 08:21:27;;;;;;;7.43;2.78;;;;;;;;;;4858878;29;20081;-64
2022/10/01 08:23:53;;;;;;;7.85;2.95;;;;;;;;;;4858331;29;20061;-65
2022/10/01 08:26:19;;;;;;;7.63;2.80;;;;;;;;;;4858301;29;20371;-65
2022/10/01 08:28:45;;;;;;;8.68;2.90;;;;;;;;;;4841667;29;20520;-71
2022/10/01 08:31:11;;;;;;;9.38;2.67;;;;;;;;;;4857908;29;20041;-66
2022/10/01 08:33:38;;;;;;;13.70;3.25;;;;;;;;;;4858207;29;20037;-65
2022/10/01 08:36:09;;;;;;;9.10;3.03;;;;;;;;;;4858191;29;20057;-69
2022/10/01 08:38:35;;;;;;;6.03;3.20;;;;;;;;;;4858542;29;20116;-65
2022/10/01 08:41:07;;;;;;;9.05;2.70;;;;;;;;;;4858121;29;20033;-70
2022/10/01 08:43:37;;;;;;;5.85;2.42;;;;;;;;;;4858039;29;20026;-70
2022/10/01 08:46:10;;;;;;;6.90;2.25;;;;;;;;;;4858307;29;20554;-69
2022/10/01 08:48:36;;;;;;;4.93;2.17;;;;;;;;;;4858249;29;20497;-65
2022/10/01 08:51:07;;;;;;;8.43;3.20;;;;;;;;;;4858246;29;20040;-65
2022/10/01 08:53:37;;;;;;;9.50;2.85;;;;;;;;;;4858330;29;20052;-66
2022/10/01 08:56:03;;;;;;;6.93;3.25;;;;;;;;;;4858289;29;20060;-66
2022/10/01 08:58:36;;;;;;;6.75;3.17;;;;;;;;;;4858272;29;20482;-68
2022/10/01 09:01:03;;;;;;;9.80;3.30;;;;;;;;;;4858416;29;20026;-65
2022/10/01 09:03:30;;;;;;;7.40;3.33;;;;;;;;;;4857977;29;20049;-66
2022/10/01 09:06:09;;;;;;;12.32;5.13;;;;;;;;;;4857744;29;20065;-66
2022/10/01 09:08:58;;;;;;;14.07;5.28;;;;;;;;;;4860710;29;20037;-67
2022/10/01 09:11:42;;;;;;;9.27;4.60;;;;;;;;;;4786860;30;20496;-67
2022/10/01 09:14:23;;;;;;;10.30;5.28;;;;;;;;;;4786952;30;20074;-68
2022/10/01 09:16:57;;;;;;;12.07;4.75;;;;;;;;;;4786179;30;20053;-68
2022/10/01 09:19:42;;;;;;;12.23;4.97;;;;;;;;;;4786589;30;20183;-67
2022/10/01 09:22:18;;;;;;;15.35;5.88;;;;;;;;;;4786643;30;20043;-69
2022/10/01 09:24:46;;;;;;;9.65;4.40;;;;;;;;;;4786606;30;20083;-72
2022/10/01 09:27:16;;;;;;;11.50;5.13;;;;;;;;;;4786431;30;20157;-72
2022/10/01 09:29:57;;;;;;;18.20;7.63;;;;;;;;;;4786601;30;20047;-68
2022/10/01 09:32:25;;;;;;;19.95;9.70;;;;;;;;;;4786351;30;20039;-72
2022/10/01 09:34:52;;;;;;;18.23;8.32;;;;;;;;;;4786514;30;20051;-69
2022/10/01 09:37:18;;;;;;;18.52;7.65;;;;;;;;;;4786273;30;20055;-71
2022/10/01 09:40:04;;;;;;;15.35;7.18;;;;;;;;;;4786213;30;20032;-71
2022/10/01 09:42:30;;;;;;;14.50;6.20;;;;;;;;;;4786193;30;20039;-65
2022/10/01 09:44:57;;;;;;;12.32;5.72;;;;;;;;;;4786449;30;20039;-67
2022/10/01 09:47:26;;;;;;;18.83;7.55;;;;;;;;;;4776112;29;20400;-69
2022/10/01 09:49:54;;;;;;;23.70;9.70;;;;;;;;;;4861693;29;20026;-70
2022/10/01 09:52:20;;;;;;;23.13;10.15;;;;;;;;;;4861488;29;20036;-63
2022/10/01 09:54:45;;;;;;;17.08;7.30;;;;;;;;;;4861321;29;20021;-68
2022/10/01 09:57:20;;;;;;;13.85;6.10;;;;;;;;;;4860854;29;20402;-69
2022/10/01 09:59:56;;;;;;;9.15;4.40;;;;;;;;;;4860995;29;20478;-65
2022/10/01 10:02:25;;;;;;;11.15;3.97;;;;;;;;;;4861359;29;20037;-72
2022/10/01 10:05:00;;;;;;;9.20;4.72;;;;;;;;;;4861400;29;20058;-66
2022/10/01 10:07:28;;;;;;;6.88;4.07;;;;;;;;;;4861123;29;20442;-70
2022/10/01 10:09:54;;;;;;;9.68;4.22;;;;;;;;;;4861923;29;20210;-72
2022/10/01 10:12:28;;;;;;;7.07;3.70;;;;;;;;;;4861072;29;20144;-65
2022/10/01 10:14:55;;;;;;;9.90;3.70;;;;;;;;;;4861193;29;20030;-65
2022/10/01 10:17:23;;;;;;;6.68;3.05;;;;;;;;;;4860663;29;20697;-70
2022/10/01 10:19:52;;;;;;;8.48;3.70;;;;;;;;;;4860656;29;20481;-68
2022/10/01 10:22:27;;;;;;;9.05;3.42;;;;;;;;;;4861073;29;20025;-64
2022/10/01 10:24:57;;;;;;;8.23;3.67;;;;;;;;;;4860869;29;20029;-64
2022/10/01 10:27:29;;;;;;;9.68;3.80;;;;;;;;;;4860790;29;20379;-64
2022/10/01 10:30:15;;;;;;;10.10;3.58;;;;;;;;;;4860658;29;20607;-64
2022/10/01 10:32:42;;;;;;;10.30;4.40;;;;;;;;;;4860627;29;20529;-72
2022/10/01 10:35:12;;;;;;;8.88;4.50;;;;;;;;;;4860701;29;20513;-64
2022/10/01 10:37:44;;;;;;;12.30;5.10;;;;;;;;;;4860440;29;20073;-72
2022/10/01 10:40:10;;;;;;;;;;;;;;;;;;4861053;29;20029;-68
2022/10/01 10:42:37;;;;;;;8.77;4.43;;;;;;;;;;4860725;29;19920;-65
2022/10/01 10:45:05;;;;;;;9.05;4.25;;;;;;;;;;4860786;29;20045;-65
2022/10/01 10:47:32;;;;;;;9.80;4.20;;;;;;;;;;4860274;29;20116;-66
2022/10/01 10:50:00;;;;;;;11.90;4.30;;;;;;;;;;4860237;29;20117;-73
2022/10/01 10:52:29;;;;;;;8.93;3.75;;;;;;;;;;4859997;29;20030;-72
2022/10/01 10:54:56;;;;;;;9.82;4.45;;;;;;;;;;4860510;29;20030;-72
2022/10/01 10:57:27;;;;;;;8.80;4.22;;;;;;;;;;4860340;29;20041;-65
2022/10/01 10:59:58;;;;;;;9.73;4.45;;;;;;;;;;4860104;29;20046;-72
2022/10/01 11:02:25;;;;;;;11.10;4.05;;;;;;;;;;4860372;29;20053;-73
2022/10/01 11:04:52;;;;;;;10.95;4.57;;;;;;;;;;4859943;29;20050;-66
2022/10/01 11:07:20;;;;;;;13.48;4.13;;;;;;;;;;4860293;29;20029;-73
2022/10/01 11:09:48;;;;;;;11.07;4.93;;;;;;;;;;4860229;29;20038;-71
2022/10/01 11:12:20;;;;;;;9.07;4.30;;;;;;;;;;4859978;29;20053;-64
2022/10/01 11:14:58;;;;;;;11.93;4.82;;;;;;;;;;4860226;29;20037;-64
2022/10/01 11:17:45;;;;;;;10.05;4.32;;;;;;;;;;4860106;29;20037;-64
2022/10/01 11:20:21;;;;;;;9.73;4.05;;;;;;;;;;4860080;29;20033;-65
2022/10/01 11:23:05;;;;;;;7.65;4.15;;;;;;;;;;4859919;29;20120;-64
2022/10/01 11:25:50;;;;;;;9.15;4.25;;;;;;;;;;4860099;29;20040;-65
2022/10/01 11:28:19;;;;;;;7.75;4.30;;;;;;;;;;4866586;29;20065;-64
2022/10/01 11:30:58;;;;;;;12.15;4.70;;;;;;;;;;4859352;29;20034;-68
2022/10/01 11:33:27;;;;;;;9.63;4.57;;;;;;;;;;4859462;29;20398;-74
2022/10/01 11:36:00;;;;;;;12.18;4.40;;;;;;;;;;4860080;29;20121;-74
2022/10/01 11:38:26;;;;;;;13.55;4.50;;;;;;;;;;4859127;29;20029;-64
2022/10/01 11:40:59;;;;;;;10.70;4.25;;;;;;;;;;4858991;29;20120;-76
2022/10/01 11:43:27;;;;;;;11.68;5.32;;;;;;;;;;4859435;29;20108;-72
2022/10/01 11:45:56;;;;;;;9.50;4.80;;;;;;;;;;4859942;29;20033;-74
2022/10/01 11:48:26;;;;;;;8.50;4.55;;;;;;;;;;4859246;29;20659;-65
2022/10/01 11:50:55;;;;;;;6.88;4.00;;;;;;;;;;4859934;29;20131;-65
2022/10/01 11:53:47;;;;;;;13.00;4.35;;;;;;;;;;4859390;29;20041;-64
2022/10/01 11:59:04;;;;;;;8.30;4.38;;;;;;;;;;4859325;29;19977;-64
2022/10/01 12:01:39;;;;;;;10.65;4.80;;;;;;;;;;4859563;29;20430;-65
2022/10/01 12:04:16;;;;;;;17.67;5.20;;;;;;;;;;4861539;29;20505;-64
2022/10/01 12:06:48;;;;;;;13.60;5.07;;;;;;;;;;4859171;29;20102;-74
2022/10/01 12:09:14;;;;;;;;;;;;;;;;;;4855205;29;20030;-65
2022/10/01 12:12:00;;;;;;;11.50;4.65;;;;;;;;;;4859159;29;19908;-64
2022/10/01 12:14:45;;;;;;;12.35;5.00;;;;;;;;;;4842133;29;20025;-70
2022/10/01 12:17:23;;;;;;;10.95;5.18;;;;;;;;;;4840078;29;20054;-72
2022/10/01 12:19:50;;;;;;;14.05;5.50;;;;;;;;;;4845356;29;20029;-65
2022/10/01 12:22:20;;;;;;;12.52;6.22;;;;;;;;;;4858808;29;20754;-70
2022/10/01 12:24:47;;;;;;;9.35;5.75;;;;;;;;;;4859434;29;20309;-67
2022/10/01 12:27:19;;;;;;;12.73;5.65;;;;;;;;;;4858913;29;20112;-65
2022/10/01 12:29:51;;;;;;;12.88;5.68;;;;;;;;;;4858685;29;20021;-64
2022/10/01 12:32:17;;;;;;;;;;;;;;;;;;4859419;29;20435;-70
2022/10/01 12:35:06;;;;;;;14.75;5.85;;;;;;;;;;4843722;29;19912;-65
2022/10/01 12:37:35;;;;;;;14.90;5.82;;;;;;;;;;4858930;29;20105;-65
2022/10/01 12:40:20;;;;;;;12.73;5.95;;;;;;;;;;4858734;29;20117;-63
2022/10/01 12:43:04;;;;;;;12.18;5.57;;;;;;;;;;4858609;29;20109;-66
2022/10/01 12:45:44;;;;;;;12.63;5.30;;;;;;;;;;4858744;29;20030;-64
2022/10/01 12:48:16;;;;;;;10.52;5.63;;;;;;;;;;4858830;29;20036;-64
2022/10/01 12:50:42;;;;;;;11.73;5.88;;;;;;;;;;4859009;29;20446;-65
2022/10/01 12:53:19;;;;;;;15.35;6.18;;;;;;;;;;4858468;29;20036;-75
2022/10/01 12:55:55;;;;;;;15.02;6.45;;;;;;;;;;4857457;29;20025;-66
2022/10/01 12:58:21;;;;;;;14.40;5.80;;;;;;;;;;4856364;29;20041;-72
2022/10/01 13:00:57;;;;;;;11.23;5.60;;;;;;;;;;4858448;29;20482;-65
2022/10/01 13:03:43;;;;;;;13.05;5.70;;;;;;;;;;4858259;29;20049;-69
2022/10/01 13:06:12;;;;;;;15.88;5.15;;;;;;;;;;4858181;29;20098;-66
2022/10/01 13:08:38;;;;;;;11.27;6.00;;;;;;;;;;4858207;29;20106;-74
2022/10/01 13:11:07;;;;;;;13.18;5.47;;;;;;;;;;4858154;29;20033;-75
2022/10/01 13:13:33;;;;;;;15.80;5.55;;;;;;;;;;4858564;29;20041;-73
2022/10/01 13:16:14;;;;;;;9.75;5.35;;;;;;;;;;4858185;29;20034;-73
2022/10/01 13:18:50;;;;;;;11.35;5.35;;;;;;;;;;4858151;29;20179;-71
2022/10/01 13:21:22;;;;;;;10.02;5.35;;;;;;;;;;4858249;29;20022;-64
2022/10/01 13:23:48;;;;;;;14.77;6.40;;;;;;;;;;4841441;29;20037;-75
2022/10/01 13:26:19;;;;;;;12.88;5.63;;;;;;;;;;4857917;29;20026;-61
2022/10/01 13:28:54;;;;;;;10.93;5.20;;;;;;;;;;4858027;29;20030;-61
2022/10/01 13:31:33;;;;;;;10.88;5.25;;;;;;;;;;4858085;29;20029;-62
2022/10/01 13:34:00;;;;;;;13.15;5.97;;;;;;;;;;4858004;29;20123;-60
2022/10/01 13:36:31;;;;;;;7.55;4.57;;;;;;;;;;4858276;29;20037;-66
2022/10/01 13:38:57;;;;;;;10.15;5.45;;;;;;;;;;4858211;29;20414;-69
2022/10/01 13:41:31;;;;;;;10.80;5.30;;;;;;;;;;4858038;29;20073;-63
2022/10/01 13:44:01;;;;;;;11.60;5.65;;;;;;;;;;4858217;29;20037;-68
2022/10/01 13:46:31;;;;;;;11.60;5.50;;;;;;;;;;4858220;29;20116;-62
2022/10/01 13:49:13;;;;;;;11.90;4.88;;;;;;;;;;4858099;29;20037;-62
2022/10/01 13:51:40;;;;;;;10.00;4.65;;;;;;;;;;4855061;29;20029;-63
2022/10/01 13:54:09;;;;;;;14.05;5.53;;;;;;;;;;4858005;29;20030;-65
2022/10/01 13:56:36;;;;;;;15.82;6.18;;;;;;;;;;4860561;29;20034;-66
2022/10/01 13:59:20;;;;;;;15.20;5.88;;;;;;;;;;4861429;29;20037;-70
2022/10/01 14:01:46;;;;;;;13.00;5.07;;;;;;;;;;4861463;29;20051;-62
2022/10/01 14:04:18;;;;;;;14.90;5.13;;;;;;;;;;4861281;29;20454;-63
2022/10/01 14:06:48;;;;;;;18.88;5.65;;;;;;;;;;4861490;29;20041;-67
2022/10/01 14:09:25;;;;;;;8.32;4.40;;;;;;;;;;4861413;29;20032;-66
2022/10/01 14:17:35;;;;;;;11.48;4.13;;;;;;;;;;4861096;29;20064;-63
2022/10/01 14:20:01;;;;;;;9.98;3.50;;;;;;;;;;4861275;29;20037;-71
2022/10/01 14:22:46;;;;;;;12.57;4.30;;;;;;;;;;4861365;29;20037;-62
2022/10/01 14:25:26;;;;;;;11.30;3.88;;;;;;;;;;4861259;29;20100;-72
2022/10/01 14:28:04;;;;;;;7.25;3.72;;;;;;;;;;4861289;29;20029;-71
2022/10/01 14:30:38;;;;;;;10.57;4.15;;;;;;;;;;4861279;29;20033;-62
2022/10/01 14:33:04;;;;;;;12.57;2.38;;;;;;;;;;4861082;29;20041;-62
2022/10/01 14:35:52;;;;;;;9.23;2.20;;;;;;;;;;4860401;29;20033;-63
2022/10/01 14:38:20;;;;;;;7.07;1.77;;;;;;;;;;4860341;29;20073;-61
2022/10/01 14:40:46;;;;;;;6.95;1.70;;;;;;;;;;4860377;29;20732;-64
2022/10/01 14:43:17;;;;;;;6.97;1.65;;;;;;;;;;4860660;29;20158;-67
2022/10/01 14:46:00;;;;;;;5.00;1.05;;;;;;;;;;4860571;29;20026;-63
2022/10/01 14:48:26;;;;;;;;;;;;;;;;;;4860261;29;20117;-69
2022/10/01 14:50:56;;;;;;;6.05;1.80;;;;;;;;;;4860059;29;20011;-71
2022/10/01 14:53:23;;;;;;;3.60;0.93;;;;;;;;;;4860655;29;20029;-60
2022/10/01 14:55:50;;;;;;;7.57;1.60;;;;;;;;;;4860055;29;20420;-61
2022/10/01 14:58:24;;;;;;;3.42;1.42;;;;;;;;;;4859488;29;20037;-70
2022/10/01 15:00:51;;;;;;;6.30;1.30;;;;;;;;;;4860822;29;20021;-59
2022/10/01 15:03:17;;;;;;;4.40;1.20;;;;;;;;;;4859642;29;20050;-74